createdAt,value
2022-12-16T00:01:35.226Z,15.17
2022-12-16T00:04:06.667Z,17.00
2022-12-16T00:06:38.500Z,17.70
2022-12-16T00:09:05.722Z,16.30
2022-12-16T00:11:32.869Z,18.07
2022-12-16T00:14:00.150Z,17.37
2022-12-16T00:16:27.654Z,17.93
2022-12-16T00:18:54.749Z,17.80
2022-12-16T00:21:21.859Z,16.83
2022-12-16T00:23:49.054Z,15.17
2022-12-16T00:26:16.464Z,16.13
2022-12-16T00:28:44.065Z,14.80
2022-12-16T00:31:12.704Z,18.87
2022-12-16T00:33:39.918Z,16.50
2022-12-16T00:36:08.091Z,18.10
2022-12-16T00:38:35.398Z,16.17
2022-12-16T00:41:02.677Z,14.37
2022-12-16T00:43:29.936Z,16.30
2022-12-16T00:45:57.345Z,15.77
2022-12-16T00:48:25.710Z,15.87
2022-12-16T00:50:55.102Z,14.10
2022-12-16T00:53:24.067Z,14.17
2022-12-16T00:55:51.955Z,14.40
2022-12-16T00:58:19.245Z,13.43
2022-12-16T01:00:46.866Z,15.60
2022-12-16T01:03:18.139Z,12.50
2022-12-16T01:05:49.121Z,14.40
2022-12-16T01:08:16.246Z,14.80
2022-12-16T01:10:43.344Z,13.70
2022-12-16T01:13:10.532Z,16.07
2022-12-16T01:15:38.035Z,13.93
2022-12-16T01:18:05.449Z,14.40
2022-12-16T01:20:34.644Z,14.23
2022-12-16T01:23:01.739Z,15.87
2022-12-16T01:25:28.820Z,13.50
2022-12-16T01:27:56.098Z,14.97
2022-12-16T01:30:23.945Z,12.77
2022-12-16T01:32:51.262Z,12.03
2022-12-16T01:35:51.453Z,11.20
2022-12-16T01:38:06.491Z,12.70
2022-12-16T01:40:33.702Z,11.47
2022-12-16T01:43:01.125Z,12.63
2022-12-16T01:45:33.581Z,11.60
2022-12-16T01:48:16.954Z,11.17
2022-12-16T01:50:44.554Z,12.03
2022-12-16T01:56:00.027Z,11.93
2022-12-16T01:58:32.673Z,11.67
2022-12-16T02:01:01.020Z,12.87
2022-12-16T02:03:31.512Z,11.27
2022-12-16T02:06:00.806Z,11.43
2022-12-16T02:08:28.072Z,10.60
2022-12-16T02:14:00.899Z,10.60
2022-12-16T02:16:55.898Z,11.40
2022-12-16T02:19:47.775Z,10.73
2022-12-16T02:22:33.522Z,9.30
2022-12-16T02:25:12.482Z,11.77
2022-12-16T02:30:50.516Z,10.05
2022-12-16T02:33:34.818Z,10.70
2022-12-16T02:36:20.705Z,9.77
2022-12-16T02:39:03.188Z,9.60
2022-12-16T02:41:57.755Z,10.60
2022-12-16T02:47:33.261Z,9.68
2022-12-16T02:50:00.692Z,10.13
2022-12-16T02:52:31.271Z,9.17
2022-12-16T02:55:03.081Z,10.47
2022-12-16T02:57:36.560Z,9.67
2022-12-16T03:02:48.350Z,10.63
2022-12-16T03:05:27.499Z,9.33
2022-12-16T03:07:58.831Z,9.83
2022-12-16T03:10:30.927Z,10.37
2022-12-16T03:13:01.658Z,9.40
2022-12-16T03:15:33.218Z,10.27
2022-12-16T03:20:56.058Z,8.93
2022-12-16T03:23:29.792Z,8.60
2022-12-16T03:26:06.125Z,10.47
2022-12-16T03:28:52.796Z,8.93
2022-12-16T03:31:57.384Z,9.10
2022-12-16T03:37:26.360Z,10.00
2022-12-16T03:39:58.389Z,10.57
2022-12-16T03:42:26.122Z,9.03
2022-12-16T03:44:53.547Z,10.27
2022-12-16T03:47:23.861Z,8.93
2022-12-16T03:49:51.806Z,10.30
2022-12-16T03:55:03.913Z,10.53
2022-12-16T03:57:31.037Z,9.03
2022-12-16T03:59:58.246Z,7.93
2022-12-16T04:02:25.522Z,8.40
2022-12-16T04:04:52.872Z,9.37
2022-12-16T04:10:10.331Z,9.00
2022-12-16T04:12:55.888Z,9.47
2022-12-16T04:15:41.459Z,9.00
2022-12-16T04:18:38.254Z,9.30
2022-12-16T04:21:24.238Z,10.30
2022-12-16T04:27:20.307Z,9.67
2022-12-16T04:30:05.777Z,9.40
2022-12-16T04:32:53.183Z,8.77
2022-12-16T04:35:39.064Z,8.15
2022-12-16T04:38:24.613Z,9.00
2022-12-16T04:44:13.237Z,10.37
2022-12-16T04:46:59.188Z,9.47
2022-12-16T04:49:44.807Z,9.67
2022-12-16T04:52:30.526Z,8.97
2022-12-16T04:55:15.955Z,9.40
2022-12-16T05:03:56.318Z,7.63
2022-12-16T05:06:41.931Z,9.23
2022-12-16T05:09:28.065Z,9.10
2022-12-16T05:12:13.614Z,10.17
2022-12-16T05:14:59.323Z,9.07
2022-12-16T05:17:45.123Z,9.47
2022-12-16T05:20:30.642Z,9.13
2022-12-16T05:23:16.520Z,10.17
2022-12-16T05:26:02.039Z,10.00
2022-12-16T05:28:48.183Z,10.60
2022-12-16T05:34:37.115Z,10.53
2022-12-16T05:37:36.537Z,10.20
2022-12-16T05:40:22.432Z,9.10
2022-12-16T05:43:10.918Z,8.43
2022-12-16T05:46:03.057Z,9.80
2022-12-16T05:48:48.641Z,10.45
2022-12-16T05:51:34.199Z,10.00
2022-12-16T05:54:19.892Z,9.83
2022-12-16T05:57:05.688Z,9.33
2022-12-16T05:59:51.306Z,9.20
2022-12-16T06:02:38.206Z,9.43
2022-12-16T06:05:24.151Z,9.60
2022-12-16T06:08:20.779Z,8.88
2022-12-16T06:11:06.420Z,8.90
2022-12-16T06:13:51.818Z,9.40
2022-12-16T06:16:37.379Z,8.50
2022-12-16T06:19:22.902Z,8.40
2022-12-16T06:22:08.629Z,9.13
2022-12-16T06:24:54.240Z,9.53
2022-12-16T06:27:39.882Z,9.27
2022-12-16T06:30:26.209Z,9.00
2022-12-16T06:33:11.588Z,8.43
2022-12-16T06:35:57.159Z,9.43
2022-12-16T06:38:42.852Z,8.53
2022-12-16T06:41:28.554Z,9.60
2022-12-16T06:44:14.131Z,9.60
2022-12-16T06:46:59.879Z,8.30
2022-12-16T06:49:45.332Z,8.93
2022-12-16T06:52:31.002Z,8.90
2022-12-16T06:55:16.551Z,8.30
2022-12-16T06:58:05.409Z,8.03
2022-12-16T07:00:55.087Z,8.07
2022-12-16T07:03:41.669Z,8.37
2022-12-16T07:06:38.003Z,8.07
2022-12-16T07:09:23.705Z,8.10
2022-12-16T07:12:09.310Z,8.50
2022-12-16T07:14:55.126Z,7.17
2022-12-16T07:17:41.673Z,9.47
2022-12-16T07:20:27.736Z,8.38
2022-12-16T07:23:19.316Z,8.30
2022-12-16T07:26:05.465Z,7.80
2022-12-16T07:28:51.124Z,8.80
2022-12-16T07:31:36.727Z,8.57
2022-12-16T07:34:22.218Z,8.50
2022-12-16T07:37:07.970Z,8.97
2022-12-16T07:39:55.320Z,7.27
2022-12-16T07:42:42.537Z,7.40
2022-12-16T07:45:29.319Z,8.27
2022-12-16T07:48:15.525Z,7.63
2022-12-16T07:51:01.148Z,8.10
2022-12-16T07:53:47.145Z,8.10
2022-12-16T07:56:33.276Z,8.53
2022-12-16T07:59:18.858Z,7.77
2022-12-16T08:02:04.564Z,8.70
2022-12-16T08:04:50.005Z,8.33
2022-12-16T08:07:35.579Z,9.27
2022-12-16T08:10:20.974Z,8.33
2022-12-16T08:13:06.747Z,9.30
2022-12-16T08:15:52.450Z,8.83
2022-12-16T08:18:38.383Z,8.60
2022-12-16T08:21:24.075Z,8.67
2022-12-16T08:24:09.623Z,8.37
2022-12-16T08:26:55.137Z,7.60
2022-12-16T08:29:45.251Z,8.60
2022-12-16T08:32:32.814Z,8.40
2022-12-16T08:35:19.450Z,7.83
2022-12-16T08:38:10.553Z,7.10
2022-12-16T08:41:03.780Z,9.37
2022-12-16T08:43:51.465Z,8.13
2022-12-16T08:46:37.055Z,9.20
2022-12-16T08:49:23.465Z,8.07
2022-12-16T08:52:09.659Z,7.40
2022-12-16T08:54:55.204Z,8.23
2022-12-16T08:57:40.662Z,9.17
2022-12-16T09:00:28.269Z,8.80
2022-12-16T09:06:01.407Z,8.47
2022-12-16T09:08:47.509Z,8.30
2022-12-16T09:11:33.103Z,9.50
2022-12-16T09:14:18.928Z,8.80
2022-12-16T09:17:04.509Z,8.83
2022-12-16T09:19:50.056Z,8.37
2022-12-16T09:22:36.730Z,8.63
2022-12-16T09:25:22.686Z,8.43
2022-12-16T09:28:08.518Z,7.60
2022-12-16T09:30:54.458Z,8.80
2022-12-16T09:33:41.426Z,8.88
2022-12-16T09:36:27.288Z,9.57
2022-12-16T09:39:12.808Z,9.07
2022-12-16T09:42:02.250Z,8.80
2022-12-16T09:44:59.687Z,8.20
2022-12-16T09:48:03.362Z,7.82
2022-12-16T09:50:50.118Z,7.83
2022-12-16T09:53:40.430Z,7.83
2022-12-16T09:56:51.128Z,8.27
2022-12-16T09:59:52.694Z,8.27
2022-12-16T10:02:41.091Z,8.93
2022-12-16T10:05:40.846Z,7.25
2022-12-16T10:08:40.805Z,7.97
2022-12-16T10:11:36.017Z,8.70
2022-12-16T10:14:33.159Z,8.60
2022-12-16T10:17:31.442Z,7.85
2022-12-16T10:20:30.734Z,7.33
2022-12-16T10:23:41.880Z,6.93
2022-12-16T10:26:38.261Z,7.53
2022-12-16T10:29:39.723Z,6.20
2022-12-16T10:33:00.210Z,7.50
2022-12-16T10:36:00.588Z,7.27
2022-12-16T10:38:59.535Z,6.93
2022-12-16T10:41:53.701Z,7.63
2022-12-16T10:45:02.264Z,7.00
2022-12-16T10:47:48.840Z,7.20
2022-12-16T10:50:34.707Z,6.93
2022-12-16T10:53:36.185Z,7.40
2022-12-16T10:56:30.548Z,7.77
2022-12-16T10:59:23.422Z,8.07
2022-12-16T11:02:17.292Z,8.97
2022-12-16T11:05:04.304Z,8.93
2022-12-16T11:08:02.137Z,7.45
2022-12-16T11:10:56.112Z,7.55
2022-12-16T11:13:53.159Z,7.47
2022-12-16T11:16:42.848Z,7.83
2022-12-16T11:19:40.928Z,7.70
2022-12-16T11:22:33.776Z,7.78
2022-12-16T11:25:25.411Z,7.30
2022-12-16T11:28:30.667Z,7.60
2022-12-16T11:31:20.917Z,8.30
2022-12-16T11:34:08.375Z,7.63
2022-12-16T11:36:56.904Z,9.53
2022-12-16T11:39:45.438Z,8.23
2022-12-16T11:42:39.250Z,8.93
2022-12-16T11:45:31.798Z,8.90
2022-12-16T11:48:50.272Z,8.47
2022-12-16T11:51:38.249Z,8.80
2022-12-16T11:54:24.098Z,8.83
2022-12-16T11:57:10.171Z,8.80
2022-12-16T12:00:01.772Z,10.83
2022-12-16T12:02:59.590Z,11.57
2022-12-16T12:06:15.921Z,10.43
2022-12-16T12:09:13.043Z,9.23
2022-12-16T12:12:17.493Z,9.43
2022-12-16T12:15:23.112Z,8.10
2022-12-16T12:18:30.271Z,9.57
2022-12-16T12:22:02.704Z,8.90
2022-12-16T12:25:32.137Z,8.80
2022-12-16T12:28:42.248Z,9.73
2022-12-16T12:32:00.284Z,10.33
2022-12-16T12:35:11.487Z,8.13
2022-12-16T12:38:16.627Z,8.10
2022-12-16T12:41:08.409Z,8.63
2022-12-16T12:44:15.926Z,8.03
2022-12-16T12:47:18.947Z,9.07
2022-12-16T12:50:23.090Z,8.83
2022-12-16T12:53:17.810Z,9.07
2022-12-16T12:56:12.660Z,9.33
2022-12-16T12:59:00.784Z,9.50
2022-12-16T13:01:51.082Z,9.27
2022-12-16T13:04:42.186Z,8.20
2022-12-16T13:07:28.305Z,9.47
2022-12-16T13:10:38.966Z,8.17
2022-12-16T13:13:34.089Z,9.63
2022-12-16T13:16:28.143Z,9.20
2022-12-16T13:20:11.614Z,8.43
2022-12-16T13:23:00.266Z,9.67
2022-12-16T13:26:02.124Z,8.77
2022-12-16T13:28:49.821Z,9.43
2022-12-16T13:31:36.498Z,9.40
2022-12-16T13:34:34.430Z,8.97
2022-12-16T13:37:28.290Z,9.00
2022-12-16T13:43:10.067Z,7.53
2022-12-16T13:46:02.366Z,9.17
2022-12-16T13:49:05.812Z,9.03
2022-12-16T13:51:57.161Z,9.03
2022-12-16T13:55:09.911Z,9.00
2022-12-16T13:57:59.849Z,8.80
2022-12-16T14:00:47.437Z,8.93
2022-12-16T14:03:46.196Z,9.50
2022-12-16T14:06:49.055Z,8.93
2022-12-16T14:09:50.592Z,8.43
2022-12-16T14:12:58.195Z,9.10
2022-12-16T14:16:17.041Z,10.10
2022-12-16T14:19:25.509Z,9.02
2022-12-16T14:22:34.503Z,8.32
2022-12-16T14:25:40.925Z,9.17
2022-12-16T14:28:41.619Z,8.03
2022-12-16T14:31:49.104Z,7.67
2022-12-16T14:34:41.083Z,10.10
2022-12-16T14:37:52.383Z,10.67
2022-12-16T14:40:48.086Z,9.80
2022-12-16T14:43:38.108Z,9.80
2022-12-16T14:46:24.719Z,9.37
2022-12-16T14:49:10.841Z,9.67
2022-12-16T14:52:03.821Z,8.20
2022-12-16T14:54:52.259Z,9.00
2022-12-16T14:57:44.522Z,9.27
2022-12-16T15:00:35.678Z,8.53
2022-12-16T15:03:41.077Z,9.57
2022-12-16T15:06:33.705Z,10.40
2022-12-16T15:09:24.775Z,9.50
2022-12-16T15:12:13.095Z,10.07
2022-12-16T15:15:00.710Z,10.03
2022-12-16T15:20:40.178Z,8.25
2022-12-16T15:23:49.551Z,8.93
2022-12-16T15:26:41.080Z,9.83
2022-12-16T15:29:47.908Z,10.03
2022-12-16T15:32:54.274Z,10.87
2022-12-16T15:35:53.676Z,12.20
2022-12-16T15:38:49.591Z,12.07
2022-12-16T15:41:56.123Z,11.23
2022-12-16T15:44:44.708Z,10.83
2022-12-16T15:47:46.887Z,10.70
2022-12-16T15:50:34.078Z,11.00
2022-12-16T15:53:47.943Z,11.88
2022-12-16T15:56:37.681Z,9.93
2022-12-16T15:59:38.622Z,11.20
2022-12-16T16:02:40.022Z,12.23
2022-12-16T16:05:35.031Z,10.20
2022-12-16T16:08:20.656Z,12.57
2022-12-16T16:11:06.331Z,11.77
2022-12-16T16:13:51.856Z,11.00
2022-12-16T16:16:37.304Z,10.23
2022-12-16T16:19:23.537Z,10.67
2022-12-16T16:22:09.007Z,12.40
2022-12-16T16:24:54.771Z,13.17
2022-12-16T16:27:40.448Z,13.20
2022-12-16T16:30:29.693Z,15.53
2022-12-16T16:33:15.144Z,15.30
2022-12-16T16:36:05.336Z,16.27
2022-12-16T16:38:50.621Z,17.70
2022-12-16T16:41:38.902Z,15.63
2022-12-16T16:44:24.634Z,13.93
2022-12-16T16:47:10.012Z,14.23
2022-12-16T16:50:06.035Z,13.17
2022-12-16T16:52:51.613Z,13.57
2022-12-16T16:55:43.129Z,13.53
2022-12-16T16:58:44.411Z,14.10
2022-12-16T17:01:35.298Z,15.13
2022-12-16T17:04:21.591Z,14.77
2022-12-16T17:07:07.485Z,14.53
2022-12-16T17:09:53.286Z,13.83
2022-12-16T17:12:44.812Z,12.90
2022-12-16T17:15:35.578Z,14.90
2022-12-16T17:18:21.716Z,15.90
2022-12-16T17:21:07.362Z,15.13
2022-12-16T17:23:53.132Z,15.53
2022-12-16T17:26:39.047Z,15.63
2022-12-16T17:29:24.667Z,14.23
2022-12-16T17:32:10.476Z,13.73
2022-12-16T17:34:56.026Z,16.97
2022-12-16T17:37:41.609Z,14.70
2022-12-16T17:40:28.591Z,14.53
2022-12-16T17:43:14.040Z,14.68
2022-12-16T17:45:59.560Z,14.13
2022-12-16T17:48:45.766Z,14.07
2022-12-16T17:51:31.738Z,15.90
2022-12-16T17:54:23.721Z,13.30
2022-12-16T17:57:13.419Z,14.80
2022-12-16T17:59:59.603Z,13.80
2022-12-16T18:02:45.149Z,16.07
2022-12-16T18:05:37.625Z,12.93
2022-12-16T18:08:26.726Z,13.43
2022-12-16T18:11:16.681Z,13.17
2022-12-16T18:14:02.697Z,12.47
2022-12-16T18:16:49.315Z,13.20
2022-12-16T18:19:35.979Z,12.52
2022-12-16T18:22:22.656Z,15.63
2022-12-16T18:25:08.290Z,15.18
2022-12-16T18:27:56.330Z,13.07
2022-12-16T18:30:41.945Z,12.87
2022-12-16T18:33:27.398Z,14.97
2022-12-16T18:36:13.316Z,14.13
2022-12-16T18:38:58.784Z,18.03
2022-12-16T18:41:44.444Z,18.83
2022-12-16T18:44:32.066Z,15.20
2022-12-16T18:50:03.699Z,13.53
2022-12-16T18:52:50.795Z,17.43
2022-12-16T18:55:36.262Z,18.40
2022-12-16T18:58:49.551Z,18.87
2022-12-16T19:01:30.112Z,19.73
2022-12-16T19:04:16.221Z,17.13
2022-12-16T19:07:01.771Z,16.87
2022-12-16T19:09:47.487Z,17.43
2022-12-16T19:12:33.015Z,18.50
2022-12-16T19:15:19.940Z,18.92
2022-12-16T19:18:05.895Z,16.97
2022-12-16T19:20:51.378Z,15.97
2022-12-16T19:23:37.914Z,15.67
2022-12-16T19:26:23.990Z,16.90
2022-12-16T19:29:09.521Z,17.50
2022-12-16T19:35:00.906Z,18.20
2022-12-16T19:37:46.664Z,18.77
2022-12-16T19:40:32.263Z,19.30
2022-12-16T19:43:17.842Z,17.37
2022-12-16T19:46:10.453Z,18.50
2022-12-16T19:48:56.887Z,20.10
2022-12-16T19:51:42.902Z,17.00
2022-12-16T19:54:28.578Z,17.07
2022-12-16T19:57:13.993Z,19.30
2022-12-16T19:59:59.740Z,21.27
2022-12-16T20:02:45.182Z,22.17
2022-12-16T20:05:31.327Z,18.40
2022-12-16T20:08:16.964Z,18.33
2022-12-16T20:11:02.683Z,16.13
2022-12-16T20:13:48.483Z,15.73
2022-12-16T20:16:34.290Z,14.43
2022-12-16T20:19:19.815Z,18.23
2022-12-16T20:22:07.059Z,17.30
2022-12-16T20:24:56.353Z,16.03
2022-12-16T20:27:42.556Z,20.47
2022-12-16T20:30:49.482Z,20.90
2022-12-16T20:33:35.380Z,18.37
2022-12-16T20:36:23.275Z,15.33
2022-12-16T20:39:09.095Z,16.20
2022-12-16T20:41:55.951Z,17.43
2022-12-16T20:44:42.471Z,17.77
2022-12-16T20:47:28.294Z,16.10
2022-12-16T20:50:13.991Z,16.77
2022-12-16T20:52:59.494Z,17.73
2022-12-16T20:55:45.147Z,18.30
2022-12-16T20:58:36.290Z,15.57
2022-12-16T21:01:22.115Z,17.40
2022-12-16T21:04:08.122Z,17.70
2022-12-16T21:06:53.637Z,16.77
2022-12-16T21:09:41.648Z,15.83
2022-12-16T21:12:27.368Z,16.43
2022-12-16T21:15:13.089Z,14.73
2022-12-16T21:17:58.570Z,18.60
2022-12-16T21:20:44.082Z,17.97
2022-12-16T21:23:29.421Z,18.70
2022-12-16T21:26:17.705Z,19.27
2022-12-16T21:29:03.296Z,19.10
2022-12-16T21:31:48.742Z,17.73
2022-12-16T21:34:34.257Z,19.27
2022-12-16T21:37:19.867Z,17.23
2022-12-16T21:40:05.502Z,17.57
2022-12-16T21:42:56.384Z,16.77
2022-12-16T21:45:42.188Z,15.20
2022-12-16T21:48:30.212Z,15.33
2022-12-16T21:51:16.010Z,14.20
2022-12-16T21:54:06.400Z,14.60
2022-12-16T21:56:53.631Z,13.30
2022-12-16T21:59:42.385Z,20.10
2022-12-16T22:02:32.266Z,16.07
2022-12-16T22:05:21.241Z,20.70
2022-12-16T22:08:07.424Z,20.47
2022-12-16T22:10:52.731Z,18.40
2022-12-16T22:13:42.050Z,21.80
2022-12-16T22:16:28.419Z,22.70
2022-12-16T22:19:14.476Z,21.37
2022-12-16T22:22:00.165Z,21.50
2022-12-16T22:24:45.714Z,22.93
2022-12-16T22:27:31.098Z,19.07
2022-12-16T22:30:16.600Z,21.17
2022-12-16T22:33:02.186Z,18.27
2022-12-16T22:35:47.864Z,20.20
2022-12-16T22:38:33.536Z,18.67
2022-12-16T22:41:20.158Z,17.53
2022-12-16T22:44:05.746Z,16.53
2022-12-16T22:46:51.193Z,16.23
2022-12-16T22:49:37.843Z,16.53
2022-12-16T22:52:23.467Z,15.73
2022-12-16T22:55:09.676Z,15.87
2022-12-16T22:57:55.279Z,15.27
2022-12-16T23:00:42.072Z,16.70
2022-12-16T23:03:35.828Z,16.33
2022-12-16T23:06:23.012Z,17.30
2022-12-16T23:09:09.717Z,16.80
2022-12-16T23:11:58.500Z,18.58
2022-12-16T23:14:45.213Z,18.83
2022-12-16T23:17:31.333Z,18.40
2022-12-16T23:20:16.953Z,17.33
2022-12-16T23:23:02.508Z,17.73
2022-12-16T23:25:48.072Z,17.17
2022-12-16T23:28:33.711Z,15.53
2022-12-16T23:31:19.240Z,18.53
2022-12-16T23:34:04.843Z,18.63
2022-12-16T23:36:50.244Z,17.80
2022-12-16T23:39:36.100Z,20.47
2022-12-16T23:42:21.671Z,17.93
2022-12-16T23:45:07.047Z,17.87
2022-12-16T23:47:52.823Z,18.97
2022-12-16T23:50:41.902Z,20.07
2022-12-16T23:53:29.819Z,18.13
2022-12-16T23:56:18.410Z,20.30
2022-12-16T23:59:06.061Z,20.33
